createdAt,value
2019-05-05T00:00:04.735Z,0
2019-05-05T00:00:44.610Z,0
2019-05-05T00:01:25.041Z,0
2019-05-05T00:02:04.561Z,0
2019-05-05T00:02:44.924Z,0
2019-05-05T00:03:25.449Z,0
2019-05-05T00:10:50.910Z,0
2019-05-05T00:11:31.341Z,0
2019-05-05T00:12:11.760Z,0
2019-05-05T00:12:52.225Z,0
2019-05-05T00:13:34.474Z,0
2019-05-05T00:14:15.041Z,0
2019-05-05T00:14:54.671Z,0
2019-05-05T00:15:34.562Z,0
2019-05-05T00:16:15.273Z,0
2019-05-05T00:16:55.641Z,0
2019-05-05T00:23:00.563Z,0
2019-05-05T00:23:40.925Z,0
2019-05-05T00:24:22.018Z,0
2019-05-05T00:25:02.488Z,0
2019-05-05T00:25:44.779Z,0
2019-05-05T00:26:24.444Z,0
2019-05-05T00:27:04.991Z,0
2019-05-05T00:27:47.333Z,0
2019-05-05T00:31:51.362Z,0
2019-05-05T00:32:32.295Z,0
2019-05-05T00:33:14.461Z,0
2019-05-05T00:33:54.523Z,0
2019-05-05T00:34:35.884Z,0
2019-05-05T00:39:20.514Z,0
2019-05-05T00:40:01.534Z,0
2019-05-05T00:40:44.295Z,0
2019-05-05T00:41:25.306Z,0
2019-05-05T00:42:05.337Z,0
2019-05-05T00:42:46.011Z,0
2019-05-05T00:47:05.109Z,0
2019-05-05T00:56:54.260Z,0
2019-05-05T00:57:34.810Z,0
2019-05-05T00:58:14.752Z,0
2019-05-05T00:58:55.871Z,0
2019-05-05T01:00:19.570Z,0
2019-05-05T01:00:59.955Z,0
2019-05-05T01:01:44.806Z,0
2019-05-05T01:02:25.028Z,0
2019-05-05T01:03:04.726Z,0
2019-05-05T01:03:44.396Z,0
2019-05-05T01:07:09.612Z,0
2019-05-05T01:07:49.971Z,0
2019-05-05T01:08:30.458Z,0
2019-05-05T01:09:10.898Z,0
2019-05-05T01:09:51.923Z,0
2019-05-05T01:10:35.359Z,0
2019-05-05T01:14:05.043Z,0
2019-05-05T01:14:44.805Z,0
2019-05-05T01:15:25.416Z,0
2019-05-05T01:19:30.551Z,0
2019-05-05T01:20:11.455Z,0
2019-05-05T01:20:55.170Z,0
2019-05-05T01:21:34.855Z,0
2019-05-05T01:22:14.544Z,0
2019-05-05T01:22:55.419Z,0
2019-05-05T01:29:39.786Z,0
2019-05-05T01:30:20.168Z,0
2019-05-05T01:31:00.584Z,0
2019-05-05T01:31:40.942Z,0
2019-05-05T01:32:21.295Z,0
2019-05-05T01:33:01.723Z,0
2019-05-05T01:33:42.131Z,0
2019-05-05T01:34:24.321Z,0
2019-05-05T01:35:02.991Z,0
2019-05-05T01:35:44.749Z,0
2019-05-05T01:36:24.274Z,0
2019-05-05T01:37:44.589Z,0
2019-05-05T01:39:50.446Z,0
2019-05-05T01:40:35.324Z,0
2019-05-05T01:41:14.822Z,0
2019-05-05T01:43:19.914Z,0
2019-05-05T01:44:02.118Z,0
2019-05-05T01:47:29.989Z,0
2019-05-05T01:48:11.386Z,0
2019-05-05T01:48:54.891Z,0
2019-05-05T01:49:34.535Z,0
2019-05-05T01:58:19.564Z,0
2019-05-05T01:58:59.860Z,0
2019-05-05T01:59:40.262Z,0
2019-05-05T02:00:20.640Z,0
2019-05-05T02:01:01.076Z,0
2019-05-05T02:01:41.429Z,0
2019-05-05T02:02:21.849Z,0
2019-05-05T02:03:03.955Z,0
2019-05-05T02:03:44.238Z,0
2019-05-05T02:04:24.418Z,0
2019-05-05T02:05:04.552Z,0
2019-05-05T02:13:11.198Z,0
2019-05-05T02:13:59.636Z,0
2019-05-05T02:14:48.874Z,0
2019-05-05T02:15:36.242Z,0
2019-05-05T02:16:16.582Z,0
2019-05-05T02:19:01.959Z,0
2019-05-05T02:19:55.742Z,0
2019-05-05T02:26:26.230Z,0
2019-05-05T02:27:06.650Z,0
2019-05-05T02:27:47.059Z,0
2019-05-05T02:28:27.496Z,0
2019-05-05T02:29:07.921Z,0
2019-05-05T02:29:48.324Z,0
2019-05-05T02:30:28.732Z,0
2019-05-05T02:31:09.146Z,0
2019-05-05T02:31:49.545Z,0
2019-05-05T02:32:29.955Z,0
2019-05-05T02:33:10.351Z,0
2019-05-05T02:33:50.755Z,0
2019-05-05T02:34:31.105Z,0
2019-05-05T02:35:11.500Z,0
2019-05-05T02:35:55.600Z,0
2019-05-05T02:41:57.406Z,0
2019-05-05T02:42:37.806Z,0
2019-05-05T02:43:18.224Z,0
2019-05-05T02:43:58.618Z,0
2019-05-05T02:44:39.029Z,0
2019-05-05T02:45:19.448Z,0
2019-05-05T02:45:59.869Z,0
2019-05-05T02:46:40.248Z,0
2019-05-05T02:47:20.691Z,0
2019-05-05T02:48:01.030Z,0
2019-05-05T02:48:41.420Z,0
2019-05-05T02:49:21.803Z,0
2019-05-05T02:50:04.855Z,0
2019-05-05T02:56:47.565Z,0
2019-05-05T02:57:28.139Z,0
2019-05-05T02:58:10.840Z,0
2019-05-05T02:58:51.247Z,0
2019-05-05T03:01:37.403Z,0
2019-05-05T03:02:17.798Z,0
2019-05-05T03:02:58.198Z,0
2019-05-05T03:03:38.591Z,0
2019-05-05T03:04:18.997Z,0
2019-05-05T03:04:59.396Z,0
2019-05-05T03:05:39.724Z,0
2019-05-05T03:06:20.250Z,0
2019-05-05T03:07:00.579Z,0
2019-05-05T03:07:40.990Z,0
2019-05-05T03:08:21.742Z,0
2019-05-05T03:09:04.260Z,0
2019-05-05T03:13:48.816Z,0
2019-05-05T03:14:29.225Z,0
2019-05-05T03:15:09.608Z,0
2019-05-05T03:15:49.995Z,0
2019-05-05T03:16:33.950Z,0
2019-05-05T03:22:37.304Z,0
2019-05-05T03:23:17.725Z,0
2019-05-05T03:23:58.155Z,0
2019-05-05T03:24:38.562Z,0
2019-05-05T03:25:18.970Z,0
2019-05-05T03:25:59.386Z,0
2019-05-05T03:26:39.843Z,0
2019-05-05T03:27:20.248Z,0
2019-05-05T03:28:00.711Z,0
2019-05-05T03:28:41.008Z,0
2019-05-05T03:29:21.401Z,0
2019-05-05T03:30:04.534Z,0
2019-05-05T03:30:44.920Z,0
2019-05-05T03:33:28.292Z,4
2019-05-05T03:34:09.563Z,4
2019-05-05T03:34:49.051Z,0
2019-05-05T03:35:29.469Z,0
2019-05-05T03:36:09.797Z,0
2019-05-05T03:36:50.202Z,0
2019-05-05T03:37:30.683Z,4
2019-05-05T03:38:10.984Z,0
2019-05-05T03:38:53.114Z,0
2019-05-05T03:39:33.805Z,4
2019-05-05T03:40:12.152Z,4
2019-05-05T03:47:40.941Z,12
2019-05-05T03:48:21.326Z,12
2019-05-05T03:49:02.159Z,16
2019-05-05T03:49:44.272Z,16
2019-05-05T03:53:49.648Z,28
2019-05-05T03:54:43.703Z,32
2019-05-05T03:55:36.507Z,40
2019-05-05T03:59:33.442Z,60
2019-05-05T04:00:14.115Z,64
2019-05-05T04:00:52.500Z,68
2019-05-05T04:02:15.309Z,76
2019-05-05T04:02:55.629Z,84
2019-05-05T04:03:36.042Z,88
2019-05-05T04:04:16.399Z,88
2019-05-05T04:04:57.173Z,92
2019-05-05T04:14:24.671Z,164
2019-05-05T04:15:03.653Z,176
2019-05-05T04:15:44.156Z,188
2019-05-05T04:16:23.790Z,200
2019-05-05T04:17:04.115Z,220
2019-05-05T04:17:44.540Z,240
2019-05-05T04:18:24.928Z,260
2019-05-05T04:19:05.297Z,272
2019-05-05T04:19:45.713Z,288
2019-05-05T04:20:26.130Z,300
2019-05-05T04:21:46.905Z,332
2019-05-05T04:22:27.312Z,344
2019-05-05T05:08:40.321Z,604
2019-05-05T05:09:19.270Z,608
2019-05-05T05:10:00.653Z,616
2019-05-05T05:10:40.985Z,668
2019-05-05T05:12:43.553Z,828
2019-05-05T05:13:24.429Z,884
2019-05-05T05:14:03.838Z,956
2019-05-05T05:14:44.168Z,964
2019-05-05T05:15:26.724Z,932
2019-05-05T05:20:57.495Z,404
2019-05-05T05:23:09.437Z,352
2019-05-05T05:26:05.017Z,376
2019-05-05T05:26:44.126Z,392
2019-05-05T11:07:10.478Z,1260
2019-05-05T11:07:53.723Z,1312
2019-05-05T11:08:34.735Z,1328
2019-05-05T11:09:13.924Z,1344
2019-05-05T11:09:53.652Z,1384
2019-05-05T11:10:34.180Z,1428
2019-05-05T11:12:39.156Z,1272
2019-05-05T11:13:19.529Z,1304
2019-05-05T11:13:59.885Z,1356
2019-05-05T11:14:40.317Z,1372
2019-05-05T11:15:20.820Z,1356
2019-05-05T11:16:03.965Z,1440
2019-05-05T11:17:29.671Z,1544
2019-05-05T11:18:10.056Z,1436
2019-05-05T11:18:50.600Z,1328
2019-05-05T11:19:33.562Z,1304
2019-05-05T11:20:14.698Z,1256
2019-05-05T11:22:19.741Z,1924
2019-05-05T11:23:00.064Z,2016
2019-05-05T11:23:40.491Z,2244
2019-05-05T11:24:20.895Z,2476
2019-05-05T11:25:01.450Z,2536
2019-05-05T11:25:41.615Z,2648
2019-05-05T11:26:24.638Z,2880
2019-05-05T11:27:06.013Z,2764
2019-05-05T11:29:09.046Z,2836
2019-05-05T11:29:49.472Z,3096
2019-05-05T11:30:30.041Z,3040
2019-05-05T11:31:10.364Z,2816
2019-05-05T11:31:50.773Z,2372
2019-05-05T11:32:49.911Z,1968
2019-05-05T11:33:30.439Z,1788
2019-05-05T11:34:10.791Z,1604
2019-05-05T11:34:51.216Z,1504
2019-05-05T11:35:33.673Z,1616
2019-05-05T11:36:13.574Z,1968
2019-05-05T11:36:54.351Z,1980
2019-05-05T11:37:34.246Z,1924
2019-05-05T11:38:14.354Z,1888
2019-05-05T11:43:39.173Z,1724
2019-05-05T11:44:19.581Z,1724
2019-05-05T11:44:59.973Z,1740
2019-05-05T11:45:40.387Z,1760
2019-05-05T11:46:24.457Z,1792
2019-05-05T11:47:03.641Z,1808
2019-05-05T11:47:44.363Z,1792
2019-05-05T11:48:24.096Z,1768
2019-05-05T11:49:04.880Z,1760
2019-05-05T11:54:29.575Z,1796
2019-05-05T11:55:12.209Z,1804
2019-05-05T11:57:25.917Z,1960
2019-05-05T11:58:08.236Z,1980
2019-05-05T11:58:49.101Z,2156
2019-05-05T11:59:29.541Z,2180
2019-05-05T12:00:09.925Z,2020
2019-05-05T12:00:50.420Z,1920
2019-05-05T12:01:30.807Z,1988
2019-05-05T12:02:11.178Z,1900
2019-05-05T12:05:36.437Z,2460
2019-05-05T12:06:16.650Z,2512
2019-05-05T12:06:57.051Z,2420
2019-05-05T12:07:37.504Z,2228
2019-05-05T12:08:18.008Z,1956
2019-05-05T12:08:58.344Z,1852
2019-05-05T12:09:38.751Z,1496
2019-05-05T12:10:19.195Z,1656
2019-05-05T12:10:59.593Z,1268
2019-05-05T12:11:40.658Z,1828
2019-05-05T12:12:23.157Z,1868
2019-05-05T12:14:27.181Z,2500
2019-05-05T12:15:06.852Z,2628
2019-05-05T12:15:47.241Z,2540
2019-05-05T12:16:27.664Z,2244
2019-05-05T12:17:09.093Z,2096
2019-05-05T12:17:49.541Z,2088
2019-05-05T12:18:31.701Z,1984
2019-05-05T12:21:18.026Z,1984
2019-05-05T12:21:58.540Z,2128
2019-05-05T12:22:38.843Z,2128
2019-05-05T12:23:19.238Z,2100
2019-05-05T12:23:59.652Z,2140
2019-05-05T12:24:41.182Z,2220
2019-05-05T12:28:06.326Z,1688
2019-05-05T12:28:46.703Z,1656
2019-05-05T12:29:27.114Z,2292
2019-05-05T12:30:07.845Z,2552
2019-05-05T12:33:44.230Z,1628
2019-05-05T12:34:24.172Z,2184
2019-05-05T12:35:05.326Z,2192
2019-05-05T12:35:45.925Z,2344
2019-05-05T12:36:26.831Z,2440
2019-05-05T12:39:14.156Z,2580
2019-05-05T12:41:23.816Z,2940
2019-05-05T12:42:05.383Z,2972
2019-05-05T12:42:46.884Z,2920
2019-05-05T12:44:14.092Z,2972
2019-05-05T12:44:54.113Z,2888
2019-05-05T12:45:34.742Z,2808
2019-05-05T12:46:15.473Z,2804
2019-05-05T12:46:58.129Z,2772
2019-05-05T12:48:24.072Z,2700
2019-05-05T12:49:04.736Z,2580
2019-05-05T12:49:44.078Z,2404
2019-05-05T12:50:24.833Z,2324
2019-05-05T12:51:07.784Z,2288
2019-05-05T12:53:14.500Z,2284
2019-05-05T12:53:54.018Z,2288
2019-05-05T12:54:34.519Z,2292
2019-05-05T12:57:24.452Z,2236
2019-05-05T12:58:07.599Z,2152
2019-05-05T13:03:34.402Z,2136
2019-05-05T13:04:14.083Z,2144
2019-05-05T13:04:53.610Z,2140
2019-05-05T13:05:34.190Z,2132
2019-05-05T13:06:14.692Z,2108
2019-05-05T13:06:54.902Z,2080
2019-05-05T13:07:35.286Z,1644
2019-05-05T13:08:15.715Z,1516
2019-05-05T13:08:56.877Z,1456
2019-05-05T13:09:38.456Z,1476
2019-05-05T13:11:43.483Z,1912
2019-05-05T13:12:23.948Z,2196
2019-05-05T13:23:44.434Z,396
2019-05-05T13:24:26.518Z,416
2019-05-05T13:25:10.150Z,412
2019-05-05T13:25:55.745Z,408
2019-05-05T13:26:32.563Z,392
2019-05-05T13:27:19.061Z,376
2019-05-05T13:27:56.961Z,376
2019-05-05T13:28:34.392Z,380
2019-05-05T13:29:54.756Z,392
2019-05-05T13:30:36.139Z,400
2019-05-05T13:37:24.234Z,432
2019-05-05T13:38:04.065Z,444
2019-05-05T13:38:43.970Z,460
2019-05-05T13:39:25.898Z,456
2019-05-05T13:42:51.056Z,496
2019-05-05T13:43:31.443Z,492
2019-05-05T13:44:11.835Z,520
2019-05-05T13:44:52.218Z,556
2019-05-05T13:45:34.261Z,580
2019-05-05T13:46:13.957Z,608
2019-05-05T13:46:53.700Z,676
2019-05-05T13:47:34.353Z,772
2019-05-05T13:48:14.265Z,856
2019-05-05T13:48:54.668Z,944
2019-05-05T13:49:35.040Z,1020
2019-05-05T13:50:15.423Z,1104
2019-05-05T13:50:55.842Z,1192
2019-05-05T13:51:36.275Z,1272
2019-05-05T13:59:41.140Z,2008
2019-05-05T14:00:21.790Z,2012
2019-05-05T14:01:03.689Z,2024
2019-05-05T14:01:44.525Z,2020
2019-05-05T14:02:24.389Z,2068
2019-05-05T14:03:04.080Z,2072
2019-05-05T14:03:44.776Z,2044
2019-05-05T14:04:24.798Z,2036
2019-05-05T14:05:05.294Z,1908
2019-05-05T14:05:45.609Z,1892
2019-05-05T14:06:26.043Z,1916
2019-05-05T14:09:13.277Z,1808
2019-05-05T14:09:52.214Z,1812
2019-05-05T14:10:32.874Z,1732
2019-05-05T14:11:15.659Z,1628
2019-05-05T14:12:00.063Z,1544
2019-05-05T14:13:39.118Z,1352
2019-05-05T14:14:19.539Z,1340
2019-05-05T14:17:03.879Z,1632
2019-05-05T14:17:43.937Z,1676
2019-05-05T14:18:23.537Z,1700
2019-05-05T14:19:04.381Z,1640
2019-05-05T14:19:44.537Z,1644
2019-05-05T14:20:24.352Z,1760
2019-05-05T14:21:04.825Z,1748
2019-05-05T14:29:43.237Z,896
2019-05-05T14:30:23.705Z,916
2019-05-05T14:31:04.036Z,792
2019-05-05T14:31:44.523Z,708
2019-05-05T14:32:24.951Z,608
2019-05-05T14:33:05.430Z,548
2019-05-05T14:33:46.196Z,540
2019-05-05T14:34:26.952Z,532
2019-05-05T14:35:07.477Z,492
2019-05-05T14:35:47.888Z,468
2019-05-05T14:36:28.472Z,468
2019-05-05T14:41:47.543Z,444
2019-05-05T14:42:28.275Z,468
2019-05-05T14:43:09.408Z,500
2019-05-05T14:43:50.710Z,556
2019-05-05T14:44:31.414Z,632
2019-05-05T14:45:12.248Z,712
2019-05-05T14:45:54.612Z,780
2019-05-05T14:46:34.168Z,820
2019-05-05T14:50:39.228Z,944
2019-05-05T14:51:20.764Z,968
2019-05-05T14:52:01.062Z,1004
2019-05-05T14:52:43.962Z,1000
2019-05-05T14:53:24.777Z,972
2019-05-05T14:55:30.350Z,920
2019-05-05T14:57:44.042Z,904
2019-05-05T14:58:28.363Z,1036
2019-05-05T14:59:10.649Z,1112
2019-05-05T14:59:53.811Z,1184
2019-05-05T15:00:33.655Z,1212
2019-05-05T15:03:17.363Z,1316
2019-05-05T15:03:57.490Z,1352
2019-05-05T15:04:38.153Z,1376
2019-05-05T15:05:18.804Z,1404
2019-05-05T15:05:59.360Z,1424
2019-05-05T15:06:40.097Z,1448
2019-05-05T15:07:20.542Z,1464
2019-05-05T15:11:26.131Z,1576
2019-05-05T15:12:06.426Z,1696
2019-05-05T15:12:46.866Z,1724
2019-05-05T15:13:27.467Z,1756
2019-05-05T15:14:07.952Z,1576
2019-05-05T15:14:48.518Z,1536
2019-05-05T15:15:29.015Z,1548
2019-05-05T15:16:10.165Z,1544
2019-05-05T15:16:49.839Z,1516
2019-05-05T15:17:30.360Z,1476
2019-05-05T15:18:10.710Z,1452
2019-05-05T15:18:51.696Z,1388
2019-05-05T15:22:57.756Z,1120
2019-05-05T15:24:20.215Z,1072
2019-05-05T15:25:01.007Z,1072
2019-05-05T15:27:46.489Z,980
2019-05-05T15:28:26.848Z,960
2019-05-05T15:29:08.148Z,948
2019-05-05T15:31:07.625Z,896
2019-05-05T15:31:48.253Z,884
2019-05-05T15:32:28.714Z,884
2019-05-05T15:33:09.171Z,888
2019-05-05T15:33:51.046Z,888
2019-05-05T15:34:31.333Z,888
2019-05-05T15:35:11.838Z,888
2019-05-05T15:35:53.850Z,896
2019-05-05T15:40:58.710Z,916
2019-05-05T15:41:38.449Z,924
2019-05-05T15:42:19.795Z,936
2019-05-05T15:43:00.409Z,948
2019-05-05T15:43:41.050Z,968
2019-05-05T15:45:03.817Z,964
2019-05-05T15:51:46.652Z,1016
2019-05-05T15:52:27.026Z,1060
2019-05-05T15:53:07.428Z,1100
2019-05-05T15:53:49.769Z,1072
2019-05-05T15:54:30.187Z,1164
2019-05-05T15:55:10.668Z,1188
2019-05-05T15:55:50.988Z,1188
2019-05-05T15:56:31.359Z,1188
2019-05-05T15:57:14.305Z,1200
2019-05-05T15:59:56.962Z,1248
2019-05-05T16:02:13.336Z,1380
2019-05-05T16:02:54.691Z,1396
2019-05-05T16:03:32.676Z,1384
2019-05-05T16:04:14.796Z,1356
2019-05-05T16:08:35.346Z,1304
2019-05-05T16:09:16.656Z,1320
2019-05-05T16:09:57.809Z,1268
2019-05-05T16:10:38.243Z,1260
2019-05-05T16:11:18.644Z,1308
2019-05-05T16:11:59.633Z,1304
2019-05-05T16:12:40.035Z,1152
2019-05-05T16:17:25.382Z,560
2019-05-05T16:18:06.060Z,480
2019-05-05T16:18:48.618Z,436
2019-05-05T16:19:28.060Z,404
2019-05-05T16:20:08.130Z,364
2019-05-05T16:20:48.451Z,348
2019-05-05T16:21:28.922Z,364
2019-05-05T16:22:09.286Z,392
2019-05-05T16:22:49.847Z,404
2019-05-05T16:23:31.191Z,408
2019-05-05T16:26:17.289Z,528
2019-05-05T16:27:39.001Z,592
2019-05-05T16:28:19.480Z,636
2019-05-05T16:28:59.894Z,652
2019-05-05T17:10:17.247Z,672
2019-05-05T17:10:57.658Z,660
2019-05-05T17:11:38.135Z,648
2019-05-05T17:12:20.304Z,640
2019-05-05T17:13:48.116Z,632
2019-05-05T17:14:28.524Z,624
2019-05-05T17:15:12.648Z,612
2019-05-05T17:17:55.242Z,600
2019-05-05T17:18:36.138Z,596
2019-05-05T17:19:16.732Z,588
2019-05-05T17:19:58.453Z,584
2019-05-05T17:20:40.391Z,584
2019-05-05T17:26:05.444Z,568
2019-05-05T17:26:45.885Z,568
2019-05-05T17:27:27.209Z,572
2019-05-05T17:28:06.915Z,568
2019-05-05T17:28:47.356Z,564
2019-05-05T17:29:28.368Z,564
2019-05-05T17:30:08.715Z,564
2019-05-05T17:30:49.170Z,560
2019-05-05T17:31:30.188Z,556
2019-05-05T17:32:09.909Z,552
2019-05-05T17:39:35.150Z,500
2019-05-05T17:40:15.571Z,496
2019-05-05T17:40:55.969Z,492
2019-05-05T17:41:36.382Z,496
2019-05-05T17:42:16.808Z,496
2019-05-05T17:42:58.839Z,496
2019-05-05T17:43:39.292Z,484
2019-05-05T17:44:19.625Z,476
2019-05-05T17:45:00.083Z,472
2019-05-05T17:47:19.709Z,456
2019-05-05T17:47:59.938Z,452
2019-05-05T17:48:40.392Z,444
2019-05-05T17:50:01.219Z,436
2019-05-05T17:50:41.628Z,432
2019-05-05T17:51:23.420Z,432
2019-05-05T17:52:44.013Z,444
2019-05-05T17:53:23.610Z,444
2019-05-05T17:54:03.704Z,448
2019-05-05T17:54:44.541Z,448
2019-05-05T17:55:27.398Z,448
2019-05-05T17:56:04.929Z,440
2019-05-05T17:56:45.304Z,436
2019-05-05T17:57:25.777Z,428
2019-05-05T17:58:06.206Z,424
2019-05-05T18:06:11.199Z,388
2019-05-05T18:06:53.518Z,380
2019-05-05T18:07:34.557Z,376
2019-05-05T18:08:14.741Z,368
2019-05-05T18:08:55.287Z,360
2019-05-05T18:12:28.772Z,344
2019-05-05T18:13:09.278Z,340
2019-05-05T18:13:49.758Z,336
2019-05-05T18:14:30.476Z,336
2019-05-05T18:15:10.942Z,328
2019-05-05T18:15:51.339Z,328
2019-05-05T18:16:33.493Z,320
2019-05-05T18:17:53.998Z,312
2019-05-05T18:23:18.627Z,272
2019-05-05T18:24:01.223Z,264
2019-05-05T18:24:41.535Z,256
2019-05-05T18:25:23.558Z,252
2019-05-05T18:30:07.645Z,212
2019-05-05T18:30:48.286Z,204
2019-05-05T18:31:28.911Z,200
2019-05-05T18:32:09.828Z,192
2019-05-05T18:32:53.402Z,184
2019-05-05T18:33:33.940Z,180
2019-05-05T18:34:13.618Z,176
2019-05-05T18:40:57.965Z,124
2019-05-05T18:41:41.273Z,120
2019-05-05T18:42:21.555Z,116
2019-05-05T18:43:03.906Z,112
2019-05-05T18:43:43.416Z,108
2019-05-05T18:47:10.455Z,92
2019-05-05T18:47:48.320Z,88
2019-05-05T18:48:28.664Z,84
2019-05-05T18:49:09.200Z,76
2019-05-05T18:49:49.680Z,76
2019-05-05T18:50:30.100Z,72
2019-05-05T18:51:10.587Z,68
2019-05-05T18:51:51.002Z,64
2019-05-05T18:52:31.666Z,60
2019-05-05T18:53:14.017Z,60
2019-05-05T19:01:56.685Z,28
2019-05-05T19:02:37.077Z,24
2019-05-05T19:03:20.672Z,24
2019-05-05T19:03:58.245Z,20
2019-05-05T19:09:21.576Z,12
2019-05-05T19:10:03.856Z,12
2019-05-05T19:10:43.358Z,8
2019-05-05T19:17:55.787Z,4
2019-05-05T19:18:36.129Z,4
2019-05-05T19:19:16.535Z,4
2019-05-05T19:19:56.895Z,4
2019-05-05T19:20:37.677Z,0
2019-05-05T19:21:17.935Z,0
2019-05-05T19:21:58.390Z,4
2019-05-05T19:22:38.755Z,4
2019-05-05T19:23:19.170Z,4
2019-05-05T19:23:59.537Z,0
2019-05-05T19:24:39.962Z,0
2019-05-05T19:25:20.288Z,0
2019-05-05T19:32:05.297Z,0
2019-05-05T19:32:45.728Z,0
2019-05-05T19:33:26.066Z,0
2019-05-05T19:34:06.535Z,0
2019-05-05T19:34:47.045Z,0
2019-05-05T19:35:40.123Z,0
2019-05-05T19:36:07.839Z,0
2019-05-05T19:36:48.269Z,0
2019-05-05T19:37:28.691Z,0
2019-05-05T19:38:10.669Z,0
2019-05-05T19:43:30.212Z,0
2019-05-05T19:44:10.587Z,0
2019-05-05T19:44:54.256Z,0
2019-05-05T19:45:34.380Z,0
2019-05-05T19:46:15.616Z,0
2019-05-05T19:46:54.771Z,0
2019-05-05T19:47:34.101Z,0
2019-05-05T19:48:15.109Z,0
2019-05-05T19:48:55.488Z,0
2019-05-05T19:53:09.420Z,0
2019-05-05T19:53:49.948Z,0
2019-05-05T19:54:30.337Z,0
2019-05-05T19:55:10.756Z,0
2019-05-05T19:55:51.110Z,0
2019-05-05T19:56:33.422Z,0
2019-05-05T19:57:11.979Z,0
2019-05-05T19:57:54.013Z,0
2019-05-05T19:58:34.006Z,0
2019-05-05T19:59:13.770Z,0
2019-05-05T19:59:54.266Z,0
2019-05-05T20:00:34.795Z,0
2019-05-05T20:03:52.467Z,0
2019-05-05T20:04:33.695Z,0
2019-05-05T20:05:13.779Z,0
2019-05-05T20:05:54.185Z,0
2019-05-05T20:06:34.173Z,0
2019-05-05T20:07:14.590Z,0
2019-05-05T20:07:55.408Z,0
2019-05-05T20:08:40.715Z,0
2019-05-05T20:09:15.875Z,0
2019-05-05T20:16:00.804Z,0
2019-05-05T20:16:41.306Z,0
2019-05-05T20:17:23.614Z,0
2019-05-05T20:18:04.697Z,0
2019-05-05T20:18:44.671Z,0
2019-05-05T20:19:26.039Z,0
2019-05-05T20:24:11.060Z,0
2019-05-05T20:24:51.622Z,0
2019-05-05T20:25:33.837Z,0
2019-05-05T20:26:14.557Z,0
2019-05-05T20:27:35.267Z,0
2019-05-05T20:28:15.569Z,0
2019-05-05T20:30:49.192Z,0
2019-05-05T20:31:29.436Z,0
2019-05-05T20:32:09.857Z,0
2019-05-05T20:32:50.244Z,0
2019-05-05T20:33:30.697Z,0
2019-05-05T20:34:13.341Z,0
2019-05-05T20:34:51.455Z,0
2019-05-05T20:35:33.775Z,0
2019-05-05T20:36:14.278Z,0
2019-05-05T20:36:53.565Z,0
2019-05-05T20:37:34.238Z,0
2019-05-05T20:42:19.120Z,0
2019-05-05T20:42:59.705Z,0
2019-05-05T20:43:40.119Z,0
2019-05-05T20:44:20.525Z,0
2019-05-05T20:45:01.402Z,0
2019-05-05T20:45:44.014Z,0
2019-05-05T20:46:23.669Z,0
2019-05-05T20:47:04.466Z,0
2019-05-05T20:47:44.009Z,0
2019-05-05T20:54:28.766Z,0
2019-05-05T20:55:09.100Z,0
2019-05-05T20:55:50.590Z,0
2019-05-05T20:56:30.577Z,0
2019-05-05T20:57:11.399Z,0
2019-05-05T20:57:53.462Z,0
2019-05-05T20:58:33.670Z,0
2019-05-05T21:05:19.234Z,0
2019-05-05T21:05:59.604Z,0
2019-05-05T21:06:41.026Z,0
2019-05-05T21:07:24.215Z,0
2019-05-05T21:08:02.008Z,0
2019-05-05T21:08:43.961Z,0
2019-05-05T21:09:24.698Z,0
2019-05-05T21:10:44.207Z,0
2019-05-05T21:13:28.931Z,0
2019-05-05T21:14:09.284Z,0
2019-05-05T21:14:49.754Z,0
2019-05-05T21:15:30.548Z,0
2019-05-05T21:16:10.810Z,0
2019-05-05T21:16:51.356Z,0
2019-05-05T21:17:33.728Z,0
2019-05-05T21:18:14.319Z,0
2019-05-05T21:18:53.970Z,0
2019-05-05T21:23:38.685Z,0
2019-05-05T21:24:19.116Z,0
2019-05-05T21:24:59.565Z,0
2019-05-05T21:25:40.774Z,0
2019-05-05T21:26:20.533Z,0
2019-05-05T21:27:00.924Z,0
2019-05-05T21:27:43.440Z,0
2019-05-05T21:28:23.554Z,0
2019-05-05T21:29:04.321Z,0
2019-05-05T21:29:44.524Z,0
2019-05-05T21:34:28.866Z,0
2019-05-05T21:35:09.321Z,0
2019-05-05T21:35:49.662Z,0
2019-05-05T21:36:30.063Z,0
2019-05-05T21:37:10.461Z,0
2019-05-05T21:37:50.982Z,0
2019-05-05T21:38:32.196Z,0
2019-05-05T21:39:14.645Z,0
2019-05-05T21:39:55.087Z,0
2019-05-05T21:40:34.541Z,0
2019-05-05T21:45:58.533Z,0
2019-05-05T21:46:38.896Z,0
2019-05-05T21:47:19.342Z,0
2019-05-05T21:47:59.644Z,0
2019-05-05T21:48:40.086Z,0
2019-05-05T21:49:24.195Z,0
2019-05-05T21:50:03.698Z,0
2019-05-05T21:50:43.246Z,0
2019-05-05T21:51:24.009Z,0
2019-05-05T21:59:28.694Z,0
2019-05-05T22:00:09.687Z,0
2019-05-05T22:00:50.016Z,0
2019-05-05T22:01:31.289Z,0
2019-05-05T22:02:11.591Z,0
2019-05-05T22:02:52.477Z,0
2019-05-05T22:03:34.671Z,0
2019-05-05T22:04:15.032Z,0
2019-05-05T22:04:54.307Z,0
2019-05-05T22:10:19.242Z,0
2019-05-05T22:10:59.681Z,0
2019-05-05T22:11:40.058Z,0
2019-05-05T22:12:20.432Z,0
2019-05-05T22:13:01.792Z,0
2019-05-05T22:21:08.623Z,0
2019-05-05T22:21:48.983Z,0
2019-05-05T22:22:31.241Z,0
2019-05-05T22:23:11.660Z,0
2019-05-05T22:23:54.413Z,0
2019-05-05T22:24:33.311Z,0
2019-05-05T22:25:14.126Z,0
2019-05-05T22:25:54.442Z,0
2019-05-05T23:13:09.636Z,0
2019-05-05T23:13:49.921Z,0
2019-05-05T23:14:30.481Z,0
2019-05-05T23:15:10.817Z,0
2019-05-05T23:15:51.085Z,0
2019-05-05T23:16:33.847Z,0
2019-05-05T23:17:11.950Z,0
2019-05-05T23:17:54.204Z,0
2019-05-05T23:18:34.739Z,0
2019-05-05T23:19:14.010Z,0
2019-05-05T23:19:54.383Z,0
2019-05-05T23:27:19.484Z,0
2019-05-05T23:27:59.857Z,0
2019-05-05T23:28:40.294Z,0
2019-05-05T23:29:20.644Z,0
2019-05-05T23:30:01.000Z,0
2019-05-05T23:30:42.417Z,0
2019-05-05T23:31:23.968Z,0
2019-05-05T23:32:43.823Z,0
2019-05-05T23:33:24.950Z,0
2019-05-05T23:34:03.950Z,0
2019-05-05T23:34:44.504Z,0
2019-05-05T23:35:24.182Z,0
2019-05-05T23:44:09.508Z,0
2019-05-05T23:44:49.855Z,0
2019-05-05T23:45:30.274Z,0
2019-05-05T23:46:10.691Z,0
2019-05-05T23:46:53.557Z,0
2019-05-05T23:47:34.341Z,0
2019-05-05T23:48:14.276Z,0
2019-05-05T23:48:53.659Z,0
2019-05-05T23:49:34.843Z,0
2019-05-05T23:50:13.546Z,0
2019-05-05T23:50:54.323Z,0
2019-05-05T23:51:34.797Z,0
